Aviation Digital Data Service (ADDS)

Output produced by METARs form (2220 UTC 17 October 2017)
found at http://aviationweather.gov/adds/metars/
 
KLBE 171730Z 1718/1818 22008KT P6SM SKC 
     FM180000 20003KT P6SM SKC